createdAt,value
2018-05-16T00:00:07.362Z,97.60
2018-05-16T00:02:34.220Z,97.90
2018-05-16T00:05:00.917Z,98.00
2018-05-16T00:07:27.557Z,97.80
2018-05-16T00:09:54.319Z,98.00
2018-05-16T00:12:21.059Z,98.10
2018-05-16T00:14:47.674Z,98.10
2018-05-16T00:17:38.090Z,98.00
2018-05-16T00:20:20.271Z,98.00
2018-05-16T00:22:47.152Z,98.00
2018-05-16T00:25:13.759Z,97.80
2018-05-16T00:27:40.490Z,97.80
2018-05-16T00:30:07.250Z,97.60
2018-05-16T00:32:34.098Z,98.30
2018-05-16T00:35:00.731Z,98.80
2018-05-16T00:37:27.373Z,98.60
2018-05-16T00:39:54.031Z,98.50
2018-05-16T00:42:20.746Z,98.30
2018-05-16T00:44:47.391Z,98.30
2018-05-16T00:47:14.227Z,98.30
2018-05-16T00:49:41.071Z,98.50
2018-05-16T00:52:07.810Z,98.60
2018-05-16T00:54:34.552Z,98.50
2018-05-16T00:57:02.920Z,98.30
2018-05-16T00:59:29.665Z,98.30
2018-05-16T01:01:56.291Z,98.40
2018-05-16T01:04:23.041Z,98.10
2018-05-16T01:06:49.888Z,98.30
2018-05-16T01:09:16.520Z,98.50
2018-05-16T01:11:43.265Z,98.40
2018-05-16T01:14:10.005Z,98.30
2018-05-16T01:16:36.846Z,98.20
2018-05-16T01:19:03.584Z,98.10
2018-05-16T01:21:30.430Z,97.90
2018-05-16T01:23:57.162Z,97.90
2018-05-16T01:26:23.905Z,97.70
2018-05-16T01:28:50.744Z,98.10
2018-05-16T01:31:17.482Z,98.10
2018-05-16T01:33:44.228Z,98.00
2018-05-16T01:36:10.811Z,98.10
2018-05-16T01:38:38.295Z,98.00
2018-05-16T01:41:04.938Z,98.00
2018-05-16T01:43:31.696Z,97.90
2018-05-16T01:45:58.331Z,97.90
2018-05-16T01:48:25.071Z,97.60
2018-05-16T01:50:51.924Z,97.80
2018-05-16T01:53:18.628Z,97.70
2018-05-16T01:55:45.218Z,97.70
2018-05-16T01:58:12.580Z,97.60
2018-05-16T02:00:40.282Z,98.00
2018-05-16T02:03:06.942Z,97.70
2018-05-16T02:05:33.540Z,97.80
2018-05-16T02:08:00.325Z,97.70
2018-05-16T02:10:26.956Z,97.70
2018-05-16T02:12:53.806Z,97.70
2018-05-16T02:15:20.537Z,97.90
2018-05-16T02:17:47.278Z,97.90
2018-05-16T02:20:14.019Z,97.70
2018-05-16T02:22:40.654Z,97.90
2018-05-16T02:25:07.378Z,97.70
2018-05-16T02:27:34.136Z,97.70
2018-05-16T02:30:00.957Z,97.90
2018-05-16T02:32:27.640Z,98.30
2018-05-16T02:34:54.326Z,98.40
2018-05-16T02:37:20.986Z,98.50
2018-05-16T02:39:48.454Z,98.70
2018-05-16T02:42:15.188Z,98.70
2018-05-16T02:44:41.902Z,98.80
2018-05-16T02:47:08.565Z,99.20
2018-05-16T02:49:35.407Z,99.20
2018-05-16T02:52:02.114Z,99.30
2018-05-16T02:54:28.855Z,99.00
2018-05-16T02:56:55.525Z,99.10
2018-05-16T02:59:22.119Z,98.90
2018-05-16T03:01:49.728Z,98.70
2018-05-16T03:04:16.433Z,98.70
2018-05-16T03:06:43.175Z,98.80
2018-05-16T03:09:09.816Z,98.70
2018-05-16T03:11:36.581Z,99.20
2018-05-16T03:14:03.285Z,99.60
2018-05-16T03:16:29.924Z,99.70
2018-05-16T03:18:56.694Z,99.70
2018-05-16T03:21:23.329Z,99.80
2018-05-16T03:23:49.964Z,99.80
2018-05-16T03:26:16.577Z,99.90
2018-05-16T03:28:43.345Z,99.70
2018-05-16T03:31:11.008Z,99.80
2018-05-16T03:33:37.743Z,99.60
2018-05-16T03:36:04.485Z,99.30
2018-05-16T03:38:31.106Z,99.10
2018-05-16T03:40:57.758Z,98.70
2018-05-16T03:43:24.474Z,98.90
2018-05-16T03:45:51.111Z,99.10
2018-05-16T03:48:17.876Z,98.90
2018-05-16T03:50:44.592Z,99.00
2018-05-16T03:53:18.386Z,99.60
2018-05-16T03:55:45.041Z,99.30
2018-05-16T03:58:23.778Z,99.10
2018-05-16T04:01:02.706Z,98.90
2018-05-16T04:03:42.040Z,99.00
2018-05-16T04:06:08.780Z,99.10
2018-05-16T04:08:35.518Z,99.70
2018-05-16T04:11:02.462Z,99.70
2018-05-16T04:13:29.384Z,99.40
2018-05-16T04:15:56.693Z,99.00
2018-05-16T04:18:23.404Z,98.80
2018-05-16T04:20:50.008Z,98.70
2018-05-16T04:23:16.876Z,98.80
2018-05-16T04:25:43.619Z,98.30
2018-05-16T04:28:10.193Z,98.40
2018-05-16T04:30:37.709Z,98.50
2018-05-16T04:33:04.307Z,98.50
2018-05-16T04:35:31.022Z,98.80
2018-05-16T04:37:57.723Z,98.80
2018-05-16T04:40:24.643Z,99.10
2018-05-16T04:42:51.307Z,99.00
2018-05-16T04:45:17.942Z,98.90
2018-05-16T04:47:44.682Z,99.10
2018-05-16T04:50:11.397Z,99.30
2018-05-16T04:52:38.037Z,98.90
2018-05-16T04:55:04.668Z,99.40
2018-05-16T04:57:31.287Z,99.10
2018-05-16T04:59:58.665Z,98.60
2018-05-16T05:02:25.397Z,98.60
2018-05-16T05:04:52.474Z,98.00
2018-05-16T05:07:19.318Z,97.80
2018-05-16T05:09:45.948Z,98.70
2018-05-16T05:12:12.691Z,97.90
2018-05-16T05:14:39.329Z,97.70
2018-05-16T05:17:05.930Z,97.10
2018-05-16T05:19:32.591Z,97.30
2018-05-16T05:21:59.242Z,96.70
2018-05-16T05:24:25.984Z,97.30
2018-05-16T05:26:52.700Z,96.10
2018-05-16T05:29:19.362Z,96.20
2018-05-16T05:31:46.203Z,96.40
2018-05-16T05:34:12.837Z,96.60
2018-05-16T05:36:39.580Z,95.90
2018-05-16T05:39:06.218Z,95.60
2018-05-16T05:41:33.033Z,96.50
2018-05-16T05:43:59.911Z,95.50
2018-05-16T05:46:26.637Z,96.80
2018-05-16T05:48:53.206Z,96.20
2018-05-16T05:51:20.833Z,95.20
2018-05-16T05:53:47.475Z,95.20
2018-05-16T05:56:14.215Z,95.30
2018-05-16T05:58:41.641Z,95.20
2018-05-16T06:01:08.289Z,95.10
2018-05-16T06:03:35.045Z,94.80
2018-05-16T06:06:01.668Z,94.50
2018-05-16T06:08:28.628Z,94.20
2018-05-16T06:10:55.371Z,94.20
2018-05-16T06:13:21.956Z,93.70
2018-05-16T06:15:49.357Z,93.30
2018-05-16T06:18:16.074Z,93.30
2018-05-16T06:20:42.838Z,92.80
2018-05-16T06:23:09.451Z,92.70
2018-05-16T06:25:36.145Z,92.40
2018-05-16T06:28:02.748Z,91.20
2018-05-16T06:30:29.459Z,91.20
2018-05-16T06:32:56.040Z,90.80
2018-05-16T06:35:22.762Z,90.60
2018-05-16T06:37:49.384Z,90.40
2018-05-16T06:40:16.013Z,88.80
2018-05-16T06:42:42.572Z,88.90
2018-05-16T06:45:09.515Z,87.60
2018-05-16T06:47:36.235Z,87.60
2018-05-16T06:50:02.954Z,86.40
2018-05-16T06:52:29.531Z,85.70
2018-05-16T06:54:56.167Z,84.60
2018-05-16T06:57:22.906Z,81.90
2018-05-16T06:59:49.649Z,80.50
2018-05-16T07:02:16.277Z,80.20
2018-05-16T07:04:42.840Z,80.50
2018-05-16T07:07:09.559Z,80.40
2018-05-16T07:09:36.477Z,80.30
2018-05-16T07:12:03.142Z,80.10
2018-05-16T07:14:29.985Z,79.10
2018-05-16T07:16:56.785Z,77.50
2018-05-16T07:19:23.437Z,77.50
2018-05-16T07:21:50.099Z,76.50
2018-05-16T07:24:16.839Z,75.70
2018-05-16T07:26:43.564Z,75.50
2018-05-16T07:29:10.221Z,75.00
2018-05-16T07:31:36.828Z,73.30
2018-05-16T07:34:03.702Z,74.00
2018-05-16T07:36:30.435Z,72.00
2018-05-16T07:38:57.281Z,71.80
2018-05-16T07:41:24.018Z,71.90
2018-05-16T07:43:50.755Z,70.70
2018-05-16T07:46:17.700Z,69.90
2018-05-16T07:48:44.443Z,70.40
2018-05-16T07:51:11.284Z,70.00
2018-05-16T07:53:38.842Z,67.40
2018-05-16T07:56:05.596Z,67.40
2018-05-16T07:58:32.423Z,67.10
2018-05-16T08:00:59.266Z,68.10
2018-05-16T08:03:26.003Z,67.00
2018-05-16T08:05:52.725Z,67.00
2018-05-16T08:08:19.595Z,66.90
2018-05-16T08:10:46.632Z,69.40
2018-05-16T08:13:13.346Z,69.50
2018-05-16T08:15:40.216Z,69.10
2018-05-16T08:18:07.880Z,70.50
2018-05-16T08:20:34.617Z,70.50
2018-05-16T08:23:01.354Z,71.60
2018-05-16T08:25:28.094Z,69.90
2018-05-16T08:27:54.835Z,71.10
2018-05-16T08:30:21.575Z,71.40
2018-05-16T08:32:48.305Z,68.90
2018-05-16T08:35:15.160Z,67.80
2018-05-16T08:37:41.999Z,67.10
2018-05-16T08:40:08.948Z,67.60
2018-05-16T08:42:35.681Z,67.70
2018-05-16T08:45:02.422Z,69.00
2018-05-16T08:47:29.161Z,72.70
2018-05-16T08:49:55.874Z,73.40
2018-05-16T08:52:22.640Z,73.40
2018-05-16T08:54:49.381Z,74.60
2018-05-16T08:57:16.226Z,73.70
2018-05-16T08:59:43.075Z,73.50
2018-05-16T09:02:09.788Z,74.50
2018-05-16T09:04:36.545Z,78.10
2018-05-16T09:07:03.387Z,79.80
2018-05-16T09:09:30.102Z,79.00
2018-05-16T09:11:57.799Z,78.30
2018-05-16T09:14:24.525Z,78.10
2018-05-16T09:16:51.370Z,78.90
2018-05-16T09:19:18.108Z,78.50
2018-05-16T09:21:44.950Z,77.80
2018-05-16T09:24:11.797Z,75.40
2018-05-16T09:26:38.737Z,73.90
2018-05-16T09:29:05.398Z,74.70
2018-05-16T09:31:32.216Z,74.80
2018-05-16T09:33:58.953Z,75.80
2018-05-16T09:36:25.800Z,74.80
2018-05-16T09:38:52.640Z,74.30
2018-05-16T09:41:19.378Z,74.80
2018-05-16T09:43:46.149Z,75.40
2018-05-16T09:46:13.780Z,74.50
2018-05-16T09:48:40.520Z,74.30
2018-05-16T09:51:07.465Z,76.00
2018-05-16T09:53:34.202Z,75.70
2018-05-16T09:56:00.942Z,76.60
2018-05-16T09:58:27.690Z,76.20
2018-05-16T10:00:54.288Z,74.80
2018-05-16T10:03:21.853Z,74.90
2018-05-16T10:05:48.460Z,74.90
2018-05-16T10:08:15.879Z,77.50
2018-05-16T10:10:42.607Z,77.50
2018-05-16T10:13:09.323Z,79.10
2018-05-16T10:15:36.136Z,76.70
2018-05-16T10:18:03.544Z,77.10
2018-05-16T10:20:30.168Z,77.00
2018-05-16T10:22:56.918Z,78.10
2018-05-16T10:25:23.765Z,79.40
2018-05-16T10:27:50.503Z,79.50
2018-05-16T10:30:17.218Z,79.90
2018-05-16T10:32:43.967Z,81.90
2018-05-16T10:35:10.542Z,81.00
2018-05-16T10:37:37.256Z,80.00
2018-05-16T10:40:04.000Z,77.50
2018-05-16T10:42:30.735Z,75.80
2018-05-16T10:44:57.372Z,74.50
2018-05-16T10:47:24.112Z,74.10
2018-05-16T10:49:50.757Z,74.40
2018-05-16T10:52:17.374Z,74.90
2018-05-16T10:54:44.090Z,75.10
2018-05-16T10:57:10.684Z,76.20
2018-05-16T10:59:37.400Z,78.10
2018-05-16T11:02:04.040Z,80.20
2018-05-16T11:04:30.776Z,81.40
2018-05-16T11:06:57.390Z,82.40
2018-05-16T11:09:24.084Z,82.60
2018-05-16T11:11:50.689Z,83.90
2018-05-16T11:14:17.330Z,80.80
2018-05-16T11:16:44.274Z,81.20
2018-05-16T11:19:11.001Z,78.30
2018-05-16T11:21:37.724Z,78.10
2018-05-16T11:24:04.460Z,77.10
2018-05-16T11:26:31.101Z,79.10
2018-05-16T11:28:57.789Z,82.30
2018-05-16T11:31:24.608Z,81.60
2018-05-16T11:33:51.352Z,80.20
2018-05-16T11:36:19.421Z,78.60
2018-05-16T11:38:46.232Z,77.70
2018-05-16T11:41:12.897Z,79.10
2018-05-16T11:43:40.428Z,80.10
2018-05-16T11:46:07.014Z,80.10
2018-05-16T11:48:34.336Z,77.80
2018-05-16T11:51:00.964Z,77.80
2018-05-16T11:53:27.593Z,78.00
2018-05-16T11:56:01.297Z,76.00
2018-05-16T11:58:27.952Z,77.90
2018-05-16T12:00:54.594Z,76.30
2018-05-16T12:03:21.341Z,76.20
2018-05-16T12:05:47.967Z,77.90
2018-05-16T12:08:14.618Z,77.70
2018-05-16T12:10:41.185Z,76.90
2018-05-16T12:13:08.708Z,78.20
2018-05-16T12:15:35.446Z,78.20
2018-05-16T12:18:02.166Z,78.20
2018-05-16T12:20:29.100Z,79.40
2018-05-16T12:22:55.692Z,78.70
2018-05-16T12:25:23.198Z,76.40
2018-05-16T12:27:49.964Z,76.10
2018-05-16T12:30:16.705Z,76.10
2018-05-16T12:32:43.444Z,76.10
2018-05-16T12:35:10.162Z,77.80
2018-05-16T12:37:37.006Z,77.50
2018-05-16T12:40:03.761Z,76.80
2018-05-16T12:42:30.500Z,77.80
2018-05-16T12:44:57.247Z,76.90
2018-05-16T12:47:23.881Z,79.40
2018-05-16T12:49:50.621Z,78.90
2018-05-16T12:52:17.361Z,80.40
2018-05-16T12:54:44.001Z,79.60
2018-05-16T12:57:10.736Z,77.50
2018-05-16T12:59:37.345Z,76.60
2018-05-16T13:02:04.011Z,78.30
2018-05-16T13:04:30.750Z,80.90
2018-05-16T13:06:57.363Z,82.70
2018-05-16T13:09:24.100Z,81.30
2018-05-16T13:11:50.867Z,82.60
2018-05-16T13:14:17.456Z,80.90
2018-05-16T13:16:44.785Z,80.90
2018-05-16T13:19:11.365Z,80.90
2018-05-16T13:21:38.143Z,81.80
2018-05-16T13:24:04.744Z,83.40
2018-05-16T13:26:31.403Z,83.00
2018-05-16T13:28:58.023Z,83.10
2018-05-16T13:31:24.632Z,83.00
2018-05-16T13:33:52.105Z,86.30
2018-05-16T13:36:18.923Z,86.30
2018-05-16T13:38:45.511Z,88.10
2018-05-16T13:41:12.150Z,87.30
2018-05-16T13:43:38.745Z,86.50
2018-05-16T13:46:05.422Z,85.30
2018-05-16T13:48:32.038Z,84.20
2018-05-16T13:50:58.673Z,84.60
2018-05-16T13:53:25.365Z,85.90
2018-05-16T13:55:52.765Z,86.50
2018-05-16T13:58:19.404Z,85.80
2018-05-16T14:00:46.033Z,86.40
2018-05-16T14:03:12.609Z,86.70
2018-05-16T14:05:39.340Z,87.00
2018-05-16T14:08:05.982Z,85.40
2018-05-16T14:10:32.821Z,85.90
2018-05-16T14:12:59.457Z,86.60
2018-05-16T14:15:26.040Z,86.80
2018-05-16T14:17:53.383Z,88.70
2018-05-16T14:20:20.778Z,87.40
2018-05-16T14:22:47.414Z,87.30
2018-05-16T14:25:14.281Z,87.50
2018-05-16T14:27:40.993Z,87.40
2018-05-16T14:30:07.658Z,87.60
2018-05-16T14:32:34.294Z,87.40
2018-05-16T14:35:00.940Z,87.70
2018-05-16T14:37:27.556Z,86.90
2018-05-16T14:39:54.124Z,86.60
2018-05-16T14:42:20.826Z,88.30
2018-05-16T14:44:47.553Z,88.40
2018-05-16T14:47:14.222Z,88.20
2018-05-16T14:49:40.858Z,88.70
2018-05-16T14:52:07.600Z,88.10
2018-05-16T14:54:34.310Z,88.60
2018-05-16T14:57:01.078Z,88.00
2018-05-16T14:59:27.688Z,88.90
2018-05-16T15:01:54.254Z,88.60
2018-05-16T15:04:20.873Z,89.60
2018-05-16T15:06:47.522Z,89.70
2018-05-16T15:09:14.093Z,88.70
2018-05-16T15:11:40.798Z,89.30
2018-05-16T15:14:07.538Z,90.50
2018-05-16T15:16:34.132Z,90.40
2018-05-16T15:19:01.529Z,91.20
2018-05-16T15:21:28.375Z,91.20
2018-05-16T15:23:55.064Z,91.60
2018-05-16T15:26:22.542Z,91.80
2018-05-16T15:28:49.306Z,91.90
2018-05-16T15:31:15.881Z,92.10
2018-05-16T15:33:43.298Z,92.50
2018-05-16T15:36:09.956Z,92.50
2018-05-16T15:38:36.675Z,92.80
2018-05-16T15:41:03.288Z,92.70
2018-05-16T15:43:29.869Z,92.90
2018-05-16T15:45:56.832Z,92.80
2018-05-16T15:48:24.144Z,92.60
2018-05-16T15:50:50.987Z,92.50
2018-05-16T15:53:17.760Z,92.50
2018-05-16T15:55:44.468Z,93.20
2018-05-16T15:58:18.076Z,93.40
2018-05-16T16:00:44.655Z,93.40
2018-05-16T16:03:11.442Z,93.60
2018-05-16T16:05:38.182Z,93.80
2018-05-16T16:08:04.785Z,94.10
2018-05-16T16:10:31.447Z,94.50
2018-05-16T16:12:58.064Z,94.60
2018-05-16T16:15:24.730Z,94.90
2018-05-16T16:17:51.345Z,95.10
2018-05-16T16:20:17.957Z,95.30
2018-05-16T16:22:45.365Z,95.40
2018-05-16T16:25:12.192Z,95.40
2018-05-16T16:27:39.020Z,96.20
2018-05-16T16:30:11.141Z,96.60
2018-05-16T16:32:37.746Z,96.80
2018-05-16T16:35:04.388Z,96.40
2018-05-16T16:37:30.978Z,96.30
2018-05-16T16:39:58.581Z,96.90
2018-05-16T16:42:25.319Z,96.90
2018-05-16T16:44:52.172Z,96.90
2018-05-16T16:47:19.722Z,97.00
2018-05-16T16:49:46.466Z,97.20
2018-05-16T16:52:13.097Z,96.90
2018-05-16T16:54:39.810Z,96.70
2018-05-16T16:57:06.499Z,96.70
2018-05-16T16:59:33.189Z,96.80
2018-05-16T17:01:59.929Z,97.00
2018-05-16T17:04:26.592Z,97.20
2018-05-16T17:06:53.297Z,97.30
2018-05-16T17:09:19.969Z,97.70
2018-05-16T17:11:46.709Z,97.40
2018-05-16T17:14:13.445Z,97.70
2018-05-16T17:16:40.291Z,97.60
2018-05-16T17:19:07.002Z,97.70
2018-05-16T17:21:33.592Z,97.90
2018-05-16T17:24:00.304Z,97.50
2018-05-16T17:26:26.884Z,97.40
2018-05-16T17:28:54.394Z,97.50
2018-05-16T17:31:21.192Z,97.50
2018-05-16T17:33:47.877Z,97.40
2018-05-16T17:36:14.618Z,97.50
2018-05-16T17:38:41.333Z,97.30
2018-05-16T17:41:07.963Z,97.20
2018-05-16T17:43:34.631Z,95.90
2018-05-16T17:46:02.105Z,95.00
2018-05-16T17:48:28.732Z,94.90
2018-05-16T17:50:55.337Z,94.80
2018-05-16T17:53:21.952Z,94.80
2018-05-16T17:55:49.361Z,95.10
2018-05-16T17:58:16.093Z,95.10
2018-05-16T18:00:42.909Z,95.20
2018-05-16T18:03:09.548Z,95.70
2018-05-16T18:05:36.181Z,95.70
2018-05-16T18:08:02.942Z,95.90
2018-05-16T18:10:29.540Z,96.10
2018-05-16T18:16:22.252Z,96.40
2018-05-16T18:18:48.874Z,96.40
2018-05-16T18:21:15.525Z,96.90
2018-05-16T18:23:42.093Z,96.70
2018-05-16T18:26:08.777Z,96.70
2018-05-16T18:28:35.436Z,96.80
2018-05-16T18:31:02.998Z,96.90
2018-05-16T18:33:29.606Z,96.80
2018-05-16T18:35:56.358Z,96.70
2018-05-16T18:38:22.985Z,96.70
2018-05-16T18:40:49.880Z,96.60
2018-05-16T18:43:17.385Z,96.80
2018-05-16T18:45:44.050Z,96.80
2018-05-16T18:48:10.684Z,96.80
2018-05-16T18:50:37.533Z,97.10
2018-05-16T18:53:04.267Z,97.50
2018-05-16T18:55:31.010Z,97.70
2018-05-16T18:57:57.624Z,97.80
2018-05-16T19:00:24.234Z,97.80
2018-05-16T19:02:51.613Z,98.00
2018-05-16T19:05:18.992Z,98.10
2018-05-16T19:07:45.641Z,98.10
2018-05-16T19:10:12.367Z,98.80
2018-05-16T19:12:39.109Z,98.40
2018-05-16T19:15:05.821Z,98.50
2018-05-16T19:17:33.462Z,98.90
2018-05-16T19:20:00.814Z,99.00
2018-05-16T19:22:28.230Z,99.20
2018-05-16T19:24:54.961Z,99.10
2018-05-16T19:27:21.697Z,99.20
2018-05-16T19:29:48.411Z,99.30
2018-05-16T19:32:15.073Z,99.30
2018-05-16T19:34:41.991Z,99.30
2018-05-16T19:37:08.550Z,99.60
2018-05-16T19:39:35.172Z,99.60
2018-05-16T19:42:02.645Z,99.60
2018-05-16T19:44:30.696Z,99.90
2018-05-16T19:46:58.793Z,99.80
2018-05-16T19:49:25.732Z,99.90
2018-05-16T19:51:52.470Z,99.90
2018-05-16T19:54:19.185Z,99.90
2018-05-16T19:56:45.921Z,99.90
2018-05-16T19:59:12.585Z,99.90
2018-05-16T20:01:39.204Z,99.90
2018-05-16T20:04:05.865Z,99.90
2018-05-16T20:06:32.603Z,99.90
2018-05-16T20:08:59.244Z,99.90
2018-05-16T20:11:25.980Z,99.90
2018-05-16T20:13:52.692Z,99.90
2018-05-16T20:16:19.251Z,99.90
2018-05-16T20:18:46.000Z,99.90
2018-05-16T20:21:12.705Z,99.90
2018-05-16T20:23:39.470Z,99.90
2018-05-16T20:26:06.194Z,99.90
2018-05-16T20:28:32.849Z,99.90
2018-05-16T20:30:59.555Z,99.90
2018-05-16T20:33:26.431Z,99.90
2018-05-16T20:35:53.274Z,99.90
2018-05-16T20:38:19.985Z,99.90
2018-05-16T20:40:46.652Z,99.90
2018-05-16T20:43:13.248Z,99.90
2018-05-16T20:45:39.921Z,99.90
2018-05-16T20:48:06.515Z,99.90
2018-05-16T20:50:33.194Z,99.90
2018-05-16T20:52:59.939Z,99.90
2018-05-16T20:55:26.658Z,99.90
2018-05-16T20:57:53.399Z,99.90
2018-05-16T21:00:20.157Z,99.90
2018-05-16T21:02:46.875Z,99.90
2018-05-16T21:05:13.596Z,99.90
2018-05-16T21:07:40.588Z,99.90
2018-05-16T21:10:07.293Z,99.90
2018-05-16T21:12:33.884Z,99.90
2018-05-16T21:15:00.592Z,99.90
2018-05-16T21:17:27.192Z,99.90
2018-05-16T21:19:53.820Z,99.90
2018-05-16T21:22:21.206Z,99.90
2018-05-16T21:24:47.856Z,99.90
2018-05-16T21:27:14.600Z,99.90
2018-05-16T21:29:41.336Z,99.90
2018-05-16T21:32:08.079Z,99.90
2018-05-16T21:34:34.792Z,99.90
2018-05-16T21:37:08.727Z,99.90
2018-05-16T21:39:35.670Z,99.90
2018-05-16T21:42:02.307Z,99.90
2018-05-16T21:44:29.049Z,99.90
2018-05-16T21:46:55.678Z,99.90
2018-05-16T21:49:22.297Z,99.90
2018-05-16T21:51:48.961Z,99.90
2018-05-16T21:54:15.579Z,99.90
2018-05-16T21:56:42.297Z,99.90
2018-05-16T21:59:09.691Z,99.90
2018-05-16T22:01:36.333Z,99.90
2018-05-16T22:04:03.099Z,99.90
2018-05-16T22:06:29.708Z,99.90
2018-05-16T22:08:56.413Z,99.90
2018-05-16T22:11:23.186Z,99.90
2018-05-16T22:13:49.791Z,99.90
2018-05-16T22:16:16.381Z,99.90
2018-05-16T22:18:43.070Z,99.90
2018-05-16T22:21:09.670Z,99.90
2018-05-16T22:23:37.044Z,99.90
2018-05-16T22:26:04.421Z,99.90
2018-05-16T22:28:31.182Z,99.90
2018-05-16T22:31:03.801Z,99.90
2018-05-16T22:33:37.358Z,99.90
2018-05-16T22:36:09.913Z,99.90
2018-05-16T22:38:42.815Z,99.90
2018-05-16T22:41:15.599Z,99.90
2018-05-16T22:43:44.488Z,99.90
2018-05-16T22:46:11.332Z,99.90
2018-05-16T22:48:38.072Z,99.90
2018-05-16T22:51:04.681Z,99.90
2018-05-16T22:53:31.550Z,99.90
2018-05-16T22:55:58.156Z,99.90
2018-05-16T22:58:24.822Z,99.90
2018-05-16T23:00:51.545Z,99.90
2018-05-16T23:03:18.200Z,99.90
2018-05-16T23:05:44.940Z,99.90
2018-05-16T23:08:11.580Z,99.90
2018-05-16T23:10:38.213Z,99.90
2018-05-16T23:13:04.927Z,99.90
2018-05-16T23:15:31.590Z,99.90
2018-05-16T23:17:58.335Z,99.90
2018-05-16T23:20:24.945Z,99.90
2018-05-16T23:22:51.572Z,99.90
2018-05-16T23:25:18.241Z,99.90
2018-05-16T23:27:44.882Z,99.90
2018-05-16T23:30:11.588Z,99.90
2018-05-16T23:32:38.344Z,99.90
2018-05-16T23:35:05.000Z,99.90
2018-05-16T23:37:31.579Z,99.90
2018-05-16T23:39:58.981Z,99.90
2018-05-16T23:42:25.605Z,99.90
2018-05-16T23:44:52.669Z,99.90
2018-05-16T23:47:19.411Z,99.90
2018-05-16T23:49:46.127Z,99.90
2018-05-16T23:52:12.790Z,99.90
2018-05-16T23:54:39.391Z,99.90
2018-05-16T23:57:06.106Z,99.90
2018-05-16T23:59:33.521Z,99.90
